Time;durP1;ratioP1;P1;durP2;ratioP2;P2;SDS_P1;SDS_P2;PMS_P1;PMS_P2;Temp;Humidity;BMP_temperature;BMP_pressure;BME280_temperature;BME280_humidity;BME280_pressure;Samples;Min_cycle;Max_cycle;Signal;HPM_P1;HPM_P2
2023/05/03 00:00:12;;;;;;;4.22;3.10;;;2.80;99.90;;;;;;4980795;28;20041;-66
2023/05/03 00:02:38;;;;;;;8.52;3.10;;;2.70;99.90;;;;;;5028959;28;20037;-66
2023/05/03 00:05:08;;;;;;;7.72;3.28;;;2.70;99.90;;;;;;5029056;28;20083;-66
2023/05/03 00:07:34;;;;;;;5.97;3.85;;;2.70;99.90;;;;;;5013084;28;20040;-66
2023/05/03 00:10:00;;;;;;;6.65;3.47;;;2.60;99.90;;;;;;5029296;28;20103;-66
2023/05/03 00:12:26;;;;;;;5.38;3.78;;;2.90;99.90;;;;;;4991051;28;20391;-66
2023/05/03 00:14:51;;;;;;;4.47;3.00;;;2.60;99.90;;;;;;4996393;28;20074;-66
2023/05/03 00:17:17;;;;;;;6.82;3.10;;;2.60;99.90;;;;;;5027654;28;20041;-66
2023/05/03 00:19:44;;;;;;;5.22;3.15;;;2.50;99.90;;;;;;4995527;28;20042;-66
2023/05/03 00:22:11;;;;;;;9.55;3.85;;;2.50;99.90;;;;;;5011860;28;20107;-66
2023/05/03 00:24:37;;;;;;;7.45;3.28;;;2.50;99.90;;;;;;4994845;28;20073;-66
2023/05/03 00:27:03;;;;;;;4.82;2.88;;;2.50;99.90;;;;;;5028844;28;20060;-66
2023/05/03 00:29:29;;;;;;;4.65;3.10;;;2.50;99.90;;;;;;5012894;28;20550;-66
2023/05/03 00:31:55;;;;;;;4.35;3.08;;;2.50;99.90;;;;;;5012627;28;20139;-66
2023/05/03 00:34:21;;;;;;;4.32;3.25;;;2.20;99.90;;;;;;5009422;28;20045;-66
2023/05/03 00:36:46;;;;;;;5.10;3.50;;;2.40;99.90;;;;;;5012058;28;20119;-65
2023/05/03 00:39:13;;;;;;;11.30;3.17;;;2.40;99.90;;;;;;5012003;28;20033;-66
2023/05/03 00:41:38;;;;;;;7.35;3.30;;;2.40;99.90;;;;;;4996486;28;20149;-66
2023/05/03 00:44:04;;;;;;;4.35;2.90;;;2.40;99.90;;;;;;4994824;28;20076;-66
2023/05/03 00:46:30;;;;;;;6.40;3.30;;;2.50;99.90;;;;;;4993189;28;20184;-66
2023/05/03 00:48:56;;;;;;;4.30;3.00;;;2.30;99.90;;;;;;5011548;28;20043;-66
2023/05/03 00:51:26;;;;;;;5.65;3.10;;;2.30;99.90;;;;;;4996046;28;20176;-66
2023/05/03 00:53:52;;;;;;;6.90;3.17;;;2.30;99.90;;;;;;5027372;28;20049;-66
2023/05/03 00:56:22;;;;;;;6.10;2.90;;;2.30;99.90;;;;;;5012280;28;20135;-66
2023/05/03 00:58:50;;;;;;;5.75;2.95;;;2.20;99.90;;;;;;5028206;28;20049;-66
2023/05/03 01:01:16;;;;;;;5.82;2.80;;;2.20;99.90;;;;;;5010917;28;20037;-66
2023/05/03 01:03:45;;;;;;;6.32;2.70;;;2.20;99.90;;;;;;5009011;28;20051;-66
2023/05/03 01:06:21;;;;;;;4.10;2.60;;;2.20;99.90;;;;;;5027182;28;20488;-66
2023/05/03 01:09:00;;;;;;;4.95;3.45;;;2.20;99.90;;;;;;5007302;28;20072;-66
2023/05/03 01:12:00;;;;;;;5.22;2.70;;;2.20;99.90;;;;;;5028305;28;20505;-66
2023/05/03 01:14:47;;;;;;;3.67;2.88;;;2.20;99.90;;;;;;5009285;28;20045;-66
2023/05/03 01:17:14;;;;;;;9.02;3.45;;;2.20;99.90;;;;;;5028991;28;20044;-66
2023/05/03 01:19:39;;;;;;;6.28;2.80;;;2.20;99.90;;;;;;5028407;28;20099;-66
2023/05/03 01:22:26;;;;;;;6.32;2.97;;;2.20;99.90;;;;;;5010553;28;20091;-66
2023/05/03 01:25:12;;;;;;;7.55;2.80;;;2.20;99.90;;;;;;5010025;28;20433;-65
2023/05/03 01:27:39;;;;;;;3.75;2.95;;;2.20;99.90;;;;;;5027115;28;20037;-66
2023/05/03 01:30:07;;;;;;;3.45;2.47;;;2.20;99.90;;;;;;5011555;28;20103;-66
2023/05/03 01:32:45;;;;;;;4.68;2.58;;;2.20;99.90;;;;;;5009651;28;20048;-66
2023/05/03 01:35:31;;;;;;;6.32;3.60;;;2.30;99.90;;;;;;5026864;28;20361;-66
2023/05/03 01:37:57;;;;;;;6.13;3.00;;;2.30;99.90;;;;;;5010928;28;20036;-66
2023/05/03 01:40:26;;;;;;;5.90;2.50;;;2.40;99.90;;;;;;5027506;28;20037;-66
2023/05/03 01:42:55;;;;;;;3.67;2.95;;;2.40;99.90;;;;;;5026648;28;20072;-66
2023/05/03 01:45:21;;;;;;;6.70;3.10;;;2.40;99.90;;;;;;5011453;28;20041;-66
2023/05/03 01:47:47;;;;;;;4.05;3.05;;;2.40;99.90;;;;;;5010625;28;20047;-66
2023/05/03 01:50:13;;;;;;;4.22;2.80;;;2.40;99.90;;;;;;5011425;28;20517;-66
2023/05/03 01:52:38;;;;;;;6.72;3.08;;;2.50;99.90;;;;;;4994397;28;20048;-66
2023/05/03 01:55:06;;;;;;;5.28;3.00;;;2.50;99.90;;;;;;4992919;28;20041;-65
2023/05/03 01:57:32;;;;;;;5.07;2.95;;;2.50;99.90;;;;;;5025213;28;20414;-66
2023/05/03 01:59:57;;;;;;;5.65;3.13;;;2.50;99.90;;;;;;5013386;28;20044;-66
2023/05/03 02:02:23;;;;;;;6.57;2.88;;;2.60;99.90;;;;;;5014524;28;20059;-66
2023/05/03 02:04:49;;;;;;;4.18;3.00;;;2.60;99.90;;;;;;5008641;28;20047;-66
2023/05/03 02:07:15;;;;;;;3.72;3.13;;;2.70;99.90;;;;;;5014238;28;20179;-66
2023/05/03 02:09:40;;;;;;;5.95;3.55;;;2.70;99.90;;;;;;5012693;28;20102;-66
2023/05/03 02:12:06;;;;;;;5.60;3.22;;;2.70;99.90;;;;;;5013643;28;20040;-66
2023/05/03 02:14:32;;;;;;;4.65;2.95;;;2.70;99.90;;;;;;5011895;28;20498;-66
2023/05/03 02:16:59;;;;;;;3.88;2.85;;;2.70;99.90;;;;;;5030061;28;20044;-65
2023/05/03 02:19:24;;;;;;;6.80;3.10;;;2.70;99.90;;;;;;5013084;28;20448;-66
2023/05/03 02:21:50;;;;;;;6.50;3.00;;;2.80;99.90;;;;;;5031536;28;20041;-66
2023/05/03 02:24:16;;;;;;;6.85;3.30;;;2.70;99.90;;;;;;5012039;28;20723;-66
2023/05/03 02:26:42;;;;;;;6.97;3.22;;;2.60;99.90;;;;;;5012301;28;20033;-66
2023/05/03 02:29:08;;;;;;;6.63;3.08;;;2.60;99.90;;;;;;5030694;28;20057;-66
2023/05/03 02:31:34;;;;;;;9.95;3.13;;;2.50;99.90;;;;;;5028619;28;20068;-66
2023/05/03 02:34:00;;;;;;;4.57;2.83;;;2.50;99.90;;;;;;5030144;28;20477;-66
2023/05/03 02:36:26;;;;;;;4.38;3.22;;;2.50;99.90;;;;;;5014213;28;20079;-67
2023/05/03 02:38:52;;;;;;;6.13;2.85;;;2.40;99.90;;;;;;5010904;28;20072;-66
2023/05/03 02:41:17;;;;;;;6.35;3.28;;;2.30;99.90;;;;;;5030679;28;20040;-67
2023/05/03 02:43:43;;;;;;;5.45;3.30;;;2.30;99.90;;;;;;5010099;28;20038;-66
2023/05/03 02:46:09;;;;;;;5.18;3.50;;;2.30;99.90;;;;;;5012993;28;20033;-66
2023/05/03 02:48:34;;;;;;;10.73;3.50;;;2.20;99.90;;;;;;4998150;28;20040;-66
2023/05/03 02:51:01;;;;;;;5.50;3.40;;;2.10;99.90;;;;;;5030157;28;20041;-66
2023/05/03 02:53:26;;;;;;;7.00;3.70;;;2.10;99.90;;;;;;5028882;28;20045;-66
2023/05/03 02:55:52;;;;;;;4.72;3.25;;;2.00;99.90;;;;;;5011938;28;20045;-66
2023/05/03 02:58:18;;;;;;;10.65;3.60;;;1.90;99.90;;;;;;5028347;28;20474;-66
2023/05/03 03:00:44;;;;;;;8.65;4.10;;;1.90;99.90;;;;;;5030382;28;20517;-66
2023/05/03 03:03:09;;;;;;;8.68;3.60;;;1.80;99.90;;;;;;5012272;28;20079;-66
2023/05/03 03:05:35;;;;;;;6.97;3.55;;;1.70;99.90;;;;;;5031088;28;20045;-66
2023/05/03 03:08:01;;;;;;;5.80;3.60;;;1.70;99.90;;;;;;5013506;28;20646;-66
2023/05/03 03:10:26;;;;;;;7.85;4.18;;;1.70;99.90;;;;;;5010314;28;20048;-66
2023/05/03 03:12:52;;;;;;;6.43;3.63;;;1.70;99.90;;;;;;4997708;28;20041;-65
2023/05/03 03:15:18;;;;;;;7.25;4.07;;;1.70;99.90;;;;;;4997236;28;20486;-66
2023/05/03 03:17:43;;;;;;;6.90;4.55;;;1.70;99.90;;;;;;4997888;28;20033;-66
2023/05/03 03:20:12;;;;;;;6.75;4.10;;;1.70;99.90;;;;;;4997115;28;20041;-66
2023/05/03 03:22:39;;;;;;;8.02;4.15;;;1.80;99.90;;;;;;5011791;28;20037;-66
2023/05/03 03:25:05;;;;;;;7.78;3.70;;;1.90;99.90;;;;;;5029564;28;20033;-66
2023/05/03 03:27:31;;;;;;;8.63;3.80;;;1.80;99.90;;;;;;5013119;28;20040;-66
2023/05/03 03:29:58;;;;;;;10.27;4.32;;;1.80;99.90;;;;;;5012319;28;20080;-66
2023/05/03 03:32:24;;;;;;;9.73;4.18;;;1.80;99.90;;;;;;5029576;28;20044;-66
2023/05/03 03:34:50;;;;;;;11.88;4.60;;;2.00;99.90;;;;;;5029736;28;20053;-66
2023/05/03 03:37:16;;;;;;;7.55;4.18;;;1.80;99.90;;;;;;5013250;28;20048;-66
2023/05/03 03:39:42;;;;;;;8.18;3.80;;;1.80;99.90;;;;;;5012004;28;20033;-66
2023/05/03 03:42:12;;;;;;;11.23;4.38;;;1.80;99.90;;;;;;5012615;28;20048;-66
2023/05/03 03:44:37;;;;;;;7.63;4.28;;;1.80;99.90;;;;;;5029121;28;20525;-66
2023/05/03 03:47:03;;;;;;;7.45;4.28;;;1.80;99.90;;;;;;5012873;28;20037;-67
2023/05/03 03:49:29;;;;;;;6.25;3.58;;;1.80;99.90;;;;;;5005666;28;20124;-66
2023/05/03 03:51:54;;;;;;;9.45;4.18;;;1.80;99.90;;;;;;5011914;28;20045;-66
2023/05/03 03:54:20;;;;;;;7.28;3.70;;;1.80;99.90;;;;;;5011804;28;20122;-66
2023/05/03 03:56:46;;;;;;;5.85;4.18;;;1.80;99.90;;;;;;5013744;28;20044;-65
2023/05/03 03:59:12;;;;;;;8.05;4.00;;;1.80;99.90;;;;;;5027582;28;20482;-66
2023/05/03 04:01:38;;;;;;;5.57;3.67;;;1.90;99.90;;;;;;5012059;28;20120;-66
2023/05/03 04:04:04;;;;;;;7.40;3.90;;;1.90;99.90;;;;;;5012645;28;20486;-66
2023/05/03 04:06:31;;;;;;;21.13;4.55;;;1.90;99.90;;;;;;5028263;28;20044;-66
2023/05/03 04:08:57;;;;;;;6.53;3.80;;;2.00;99.90;;;;;;5027696;28;20102;-66
2023/05/03 04:11:22;;;;;;;5.30;3.88;;;2.00;99.90;;;;;;5028599;28;20048;-66
2023/05/03 04:13:48;;;;;;;8.52;4.28;;;2.40;99.90;;;;;;5011045;28;20530;-66
2023/05/03 04:16:14;;;;;;;8.50;4.30;;;2.10;99.90;;;;;;5028005;28;20032;-66
2023/05/03 04:18:40;;;;;;;8.45;4.45;;;2.10;99.90;;;;;;5012406;28;20514;-66
2023/05/03 04:21:06;;;;;;;6.70;3.55;;;2.20;99.90;;;;;;4993649;28;20040;-66
2023/05/03 04:23:32;;;;;;;13.07;4.90;;;2.20;99.90;;;;;;5009484;28;20029;-66
2023/05/03 04:25:58;;;;;;;7.85;4.15;;;2.30;99.90;;;;;;5028618;28;20059;-66
2023/05/03 04:28:25;;;;;;;7.38;4.85;;;2.40;99.90;;;;;;5010349;28;20083;-66
2023/05/03 04:30:52;;;;;;;9.82;5.15;;;2.50;99.90;;;;;;5012316;28;20045;-66
2023/05/03 04:33:19;;;;;;;10.88;4.55;;;2.50;99.90;;;;;;5012560;28;20056;-66
2023/05/03 04:35:49;;;;;;;5.15;4.53;;;2.60;99.90;;;;;;5027304;28;20048;-66
2023/05/03 04:38:16;;;;;;;7.40;3.92;;;2.70;99.90;;;;;;5004507;28;20048;-66
2023/05/03 04:40:41;;;;;;;6.25;4.32;;;2.70;99.90;;;;;;5012227;28;20033;-66
2023/05/03 04:43:07;;;;;;;7.13;3.65;;;2.80;99.90;;;;;;5012232;28;20525;-66
2023/05/03 04:45:33;;;;;;;5.10;3.85;;;2.80;99.90;;;;;;5028318;28;20059;-66
2023/05/03 04:47:59;;;;;;;7.60;3.97;;;2.90;99.90;;;;;;5010832;28;20033;-66
2023/05/03 04:50:24;;;;;;;8.02;3.65;;;2.90;99.90;;;;;;5026870;28;20044;-66
2023/05/03 04:52:50;;;;;;;9.00;4.03;;;3.00;99.90;;;;;;5011793;28;20040;-66
2023/05/03 04:55:16;;;;;;;9.23;4.20;;;3.00;99.90;;;;;;4994200;28;20407;-66
2023/05/03 04:57:42;;;;;;;7.20;3.90;;;3.10;99.90;;;;;;5026101;28;20037;-66
2023/05/03 05:00:10;;;;;;;7.20;3.90;;;3.20;99.90;;;;;;5027885;28;20115;-66
2023/05/03 05:02:36;;;;;;;4.72;3.60;;;3.20;99.90;;;;;;5012442;28;20033;-66
2023/05/03 05:05:02;;;;;;;7.03;4.00;;;3.30;99.90;;;;;;5026692;28;20041;-65
2023/05/03 05:07:28;;;;;;;6.60;3.72;;;3.30;99.90;;;;;;5010572;28;20041;-66
2023/05/03 05:09:54;;;;;;;7.60;4.00;;;3.30;99.90;;;;;;5008388;28;20102;-66
2023/05/03 05:12:20;;;;;;;8.88;4.15;;;3.40;99.90;;;;;;5007028;28;20053;-66
2023/05/03 05:14:46;;;;;;;7.35;3.80;;;3.40;99.90;;;;;;5025364;28;20069;-66
2023/05/03 05:17:11;;;;;;;6.55;4.03;;;3.50;99.90;;;;;;5011706;28;20390;-66
2023/05/03 05:19:37;;;;;;;7.93;4.80;;;3.80;99.90;;;;;;5012184;28;20044;-66
2023/05/03 05:22:03;;;;;;;6.93;4.00;;;3.70;99.90;;;;;;5006032;28;20072;-66
2023/05/03 05:24:29;;;;;;;7.75;3.78;;;3.80;99.90;;;;;;5027786;28;20044;-66
2023/05/03 05:26:54;;;;;;;9.70;3.78;;;3.90;99.90;;;;;;4993376;28;20036;-66
2023/05/03 05:29:20;;;;;;;6.88;3.75;;;3.90;99.90;;;;;;5010663;28;20525;-66
2023/05/03 05:31:46;;;;;;;8.75;4.30;;;4.00;99.90;;;;;;5025639;28;20076;-66
2023/05/03 05:34:12;;;;;;;6.78;3.63;;;4.10;99.90;;;;;;5029586;28;20079;-66
2023/05/03 05:36:37;;;;;;;4.50;3.58;;;4.30;99.90;;;;;;5025231;28;20041;-67
2023/05/03 05:39:03;;;;;;;7.38;3.88;;;4.30;99.90;;;;;;5031217;28;20056;-66
2023/05/03 05:41:29;;;;;;;7.10;4.00;;;4.30;99.90;;;;;;5035003;28;20291;-67
2023/05/03 05:43:55;;;;;;;7.97;3.80;;;4.40;99.90;;;;;;5035171;28;20063;-67
2023/05/03 05:46:20;;;;;;;9.10;4.00;;;4.60;99.90;;;;;;5034228;28;20084;-66
2023/05/03 05:48:46;;;;;;;8.38;4.10;;;4.70;99.90;;;;;;5017585;28;20525;-67
2023/05/03 05:51:12;;;;;;;9.57;4.25;;;4.80;99.90;;;;;;5001848;28;20043;-66
2023/05/03 05:53:38;;;;;;;6.95;4.38;;;4.90;99.90;;;;;;5035432;28;20414;-66
2023/05/03 05:56:05;;;;;;;7.93;4.75;;;5.00;99.90;;;;;;5019411;28;20114;-67
2023/05/03 05:58:31;;;;;;;9.00;4.45;;;5.10;99.90;;;;;;5035466;28;20148;-67
2023/05/03 06:01:00;;;;;;;5.70;3.90;;;5.20;99.90;;;;;;5031636;28;20115;-66
2023/05/03 06:03:25;;;;;;;6.78;4.35;;;5.30;99.90;;;;;;5031812;28;20449;-66
2023/05/03 06:05:51;;;;;;;7.68;4.07;;;5.50;99.90;;;;;;5003279;28;20044;-67
2023/05/03 06:08:17;;;;;;;6.68;4.10;;;5.60;99.90;;;;;;5030696;28;20072;-67
2023/05/03 06:10:43;;;;;;;7.70;4.55;;;5.70;99.90;;;;;;5002386;28;20057;-67
2023/05/03 06:13:08;;;;;;;9.43;4.50;;;5.80;99.90;;;;;;5035431;28;20041;-67
2023/05/03 06:15:34;;;;;;;10.27;4.60;;;5.90;99.90;;;;;;5002415;28;20541;-67
2023/05/03 06:18:00;;;;;;;6.97;3.63;;;6.00;99.90;;;;;;5018428;28;20481;-67
2023/05/03 06:20:26;;;;;;;6.05;4.20;;;6.10;99.90;;;;;;5019163;28;20126;-67
2023/05/03 06:22:51;;;;;;;6.90;4.32;;;6.20;99.90;;;;;;5052659;28;20445;-66
2023/05/03 06:25:17;;;;;;;6.22;4.10;;;6.30;99.90;;;;;;5002444;28;20470;-67
2023/05/03 06:27:43;;;;;;;8.45;4.13;;;6.40;99.90;;;;;;5018192;28;20098;-67
2023/05/03 06:30:09;;;;;;;8.80;4.10;;;6.40;99.90;;;;;;5035233;28;20045;-67
2023/05/03 06:32:37;;;;;;;9.55;3.85;;;6.50;99.90;;;;;;5018298;28;20033;-67
2023/05/03 06:35:02;;;;;;;11.60;4.05;;;6.60;99.90;;;;;;5018752;28;20045;-67
2023/05/03 06:37:28;;;;;;;4.60;3.83;;;6.70;99.90;;;;;;5018078;28;20033;-67
2023/05/03 06:39:54;;;;;;;5.65;3.80;;;6.80;99.90;;;;;;5035115;28;20033;-67
2023/05/03 06:42:20;;;;;;;6.57;3.90;;;6.80;99.90;;;;;;5034648;28;20519;-67
2023/05/03 06:44:47;;;;;;;9.30;4.15;;;7.00;99.90;;;;;;5015103;28;20068;-67
2023/05/03 06:47:13;;;;;;;6.65;3.97;;;7.10;99.90;;;;;;5007351;28;20510;-67
2023/05/03 06:49:38;;;;;;;7.13;4.18;;;7.10;99.90;;;;;;5018370;28;20040;-67
2023/05/03 06:52:05;;;;;;;12.27;4.82;;;7.20;99.90;;;;;;5018256;28;20032;-66
2023/05/03 06:54:31;;;;;;;6.85;4.28;;;7.20;99.90;;;;;;5019147;28;20056;-66
2023/05/03 06:56:57;;;;;;;10.50;4.13;;;7.30;99.90;;;;;;5019067;28;20037;-67
2023/05/03 06:59:23;;;;;;;7.93;4.20;;;7.40;99.90;;;;;;5002594;28;20120;-66
2023/05/03 07:01:50;;;;;;;6.70;4.38;;;7.50;99.90;;;;;;5034479;28;20517;-67
2023/05/03 07:04:15;;;;;;;7.10;4.63;;;7.60;99.90;;;;;;5034606;28;20107;-67
2023/05/03 07:06:41;;;;;;;5.75;4.20;;;7.70;99.90;;;;;;5034430;28;20041;-67
2023/05/03 07:09:07;;;;;;;6.18;4.25;;;7.80;99.90;;;;;;5017691;28;20043;-67
2023/05/03 07:11:35;;;;;;;5.80;4.28;;;8.00;99.90;;;;;;5017678;28;20045;-67
2023/05/03 07:14:01;;;;;;;8.23;4.07;;;8.20;99.90;;;;;;5017838;28;20049;-67
2023/05/03 07:16:27;;;;;;;5.97;3.88;;;8.30;99.90;;;;;;5034081;28;20051;-67
2023/05/03 07:18:53;;;;;;;8.93;4.47;;;8.50;99.90;;;;;;5001700;28;20041;-67
2023/05/03 07:21:19;;;;;;;10.23;4.20;;;8.70;99.90;;;;;;5017767;28;20302;-67
2023/05/03 07:23:44;;;;;;;5.00;3.50;;;8.90;99.90;;;;;;5033235;28;20095;-67
2023/05/03 07:26:10;;;;;;;5.90;3.55;;;9.00;99.90;;;;;;5033696;28;20102;-67
2023/05/03 07:28:36;;;;;;;3.97;2.97;;;9.30;99.90;;;;;;5016583;28;20069;-67
2023/05/03 07:31:03;;;;;;;5.30;3.67;;;9.50;99.90;;;;;;5034114;28;20148;-67
2023/05/03 07:33:32;;;;;;;6.68;3.30;;;9.80;99.90;;;;;;5017382;28;20120;-67
2023/05/03 07:35:58;;;;;;;3.80;2.70;;;10.80;99.90;;;;;;5017419;28;20037;-67
2023/05/03 07:38:23;;;;;;;4.03;2.60;;;12.20;99.90;;;;;;5033508;28;20105;-68
2023/05/03 07:40:49;;;;;;;4.47;2.47;;;12.90;99.90;;;;;;5017336;28;20037;-67
2023/05/03 07:43:17;;;;;;;5.45;2.28;;;12.90;99.90;;;;;;5016976;28;20486;-67
2023/05/03 07:45:43;;;;;;;3.95;1.95;;;12.40;99.90;;;;;;5001402;28;20044;-67
2023/05/03 07:48:09;;;;;;;2.80;1.95;;;12.00;98.90;;;;;;5033541;28;20490;-67
2023/05/03 07:50:34;;;;;;;5.85;1.77;;;11.50;99.50;;;;;;5017543;28;20451;-68
2023/05/03 07:53:00;;;;;;;5.18;2.20;;;11.30;99.90;;;;;;5033908;28;20245;-67
2023/05/03 07:55:27;;;;;;;5.25;2.30;;;11.00;99.70;;;;;;5016955;28;20490;-67
2023/05/03 07:57:57;;;;;;;5.03;2.15;;;10.90;99.90;;;;;;4999863;28;20493;-67
2023/05/03 08:00:23;;;;;;;1.83;1.73;;;10.80;99.90;;;;;;5017070;28;20131;-67
2023/05/03 08:02:48;;;;;;;3.35;2.47;;;10.80;99.90;;;;;;5017186;28;20526;-68
2023/05/03 08:05:15;;;;;;;3.83;2.45;;;11.40;99.90;;;;;;5033749;28;20123;-67
2023/05/03 08:07:40;;;;;;;3.50;1.85;;;11.60;98.00;;;;;;5016859;28;20319;-68
2023/05/03 08:10:07;;;;;;;5.30;2.40;;;11.50;98.10;;;;;;5033043;28;20088;-68
2023/05/03 08:12:33;;;;;;;3.22;2.05;;;11.20;98.90;;;;;;5032986;28;20045;-68
2023/05/03 08:14:58;;;;;;;4.70;2.17;;;11.00;98.20;;;;;;5033114;28;20044;-67
2023/05/03 08:17:25;;;;;;;4.75;2.30;;;10.80;98.70;;;;;;5016815;28;20040;-67
2023/05/03 08:19:51;;;;;;;2.85;2.10;;;10.50;98.30;;;;;;5033306;28;20430;-67
2023/05/03 08:22:17;;;;;;;3.97;2.20;;;10.40;99.00;;;;;;5014123;28;20482;-68
2023/05/03 08:24:43;;;;;;;3.38;2.10;;;10.40;99.80;;;;;;5032179;28;20132;-67
2023/05/03 08:27:09;;;;;;;5.65;2.30;;;10.40;99.70;;;;;;5015638;28;20033;-68
2023/05/03 08:29:38;;;;;;;6.28;2.30;;;10.30;99.90;;;;;;5016194;28;20040;-68
2023/05/03 08:32:04;;;;;;;2.97;1.90;;;10.40;99.60;;;;;;5015952;28;20390;-68
2023/05/03 08:34:31;;;;;;;8.93;2.50;;;10.30;99.40;;;;;;5033067;28;20048;-68
2023/05/03 08:36:57;;;;;;;2.47;2.13;;;10.50;99.90;;;;;;4998565;28;20069;-68
2023/05/03 08:39:25;;;;;;;5.72;2.33;;;10.80;99.90;;;;;;5032726;28;20037;-68
2023/05/03 08:41:52;;;;;;;3.38;2.08;;;11.10;99.90;;;;;;5031911;28;20037;-68
2023/05/03 08:44:22;;;;;;;3.05;2.20;;;11.30;99.90;;;;;;5016218;28;20090;-68
2023/05/03 08:46:51;;;;;;;5.10;2.20;;;11.40;98.90;;;;;;5015997;28;20045;-67
2023/05/03 08:49:17;;;;;;;5.28;2.20;;;11.60;97.80;;;;;;5029427;28;20402;-67
2023/05/03 08:51:48;;;;;;;2.60;2.15;;;12.00;99.10;;;;;;5016332;28;20040;-67
2023/05/03 08:54:16;;;;;;;4.05;2.05;;;12.20;97.60;;;;;;5029389;28;20098;-68
2023/05/03 08:56:43;;;;;;;3.00;1.90;;;12.10;97.50;;;;;;5007454;28;20041;-68
2023/05/03 08:59:12;;;;;;;6.15;2.35;;;12.00;97.00;;;;;;5029274;28;20033;-68
2023/05/03 09:01:40;;;;;;;4.05;2.22;;;11.90;97.10;;;;;;5012329;28;20056;-68
2023/05/03 09:04:07;;;;;;;5.18;2.30;;;11.70;96.40;;;;;;5016207;28;20037;-68
2023/05/03 09:06:33;;;;;;;4.95;2.40;;;11.40;97.10;;;;;;5032396;28;20041;-67
2023/05/03 09:09:00;;;;;;;4.82;2.38;;;11.40;97.60;;;;;;5013473;28;20048;-67
2023/05/03 09:11:28;;;;;;;5.40;2.40;;;11.30;96.80;;;;;;5015355;28;20044;-67
2023/05/03 09:14:06;;;;;;;7.15;2.40;;;11.60;97.80;;;;;;5015880;28;20102;-67
2023/05/03 09:16:32;;;;;;;2.85;2.20;;;12.20;98.30;;;;;;5032169;28;20037;-67
2023/05/03 09:19:03;;;;;;;5.72;2.20;;;12.50;97.50;;;;;;5032486;28;20032;-67
2023/05/03 09:21:30;;;;;;;4.38;1.98;;;12.50;96.80;;;;;;5032171;28;20048;-67
2023/05/03 09:23:57;;;;;;;3.28;2.15;;;12.20;95.90;;;;;;5015851;28;20070;-67
2023/05/03 09:26:30;;;;;;;5.00;2.28;;;12.10;95.80;;;;;;5032174;28;20037;-67
2023/05/03 09:29:01;;;;;;;4.13;1.90;;;12.30;96.40;;;;;;5032003;28;20037;-67
2023/05/03 09:31:31;;;;;;;5.75;2.17;;;12.60;96.90;;;;;;4999816;28;20041;-67
2023/05/03 09:33:57;;;;;;;2.50;2.13;;;12.50;95.80;;;;;;5032022;28;20103;-67
2023/05/03 09:36:24;;;;;;;4.30;1.98;;;12.30;95.90;;;;;;4999361;28;20047;-67
2023/05/03 09:38:51;;;;;;;4.43;2.10;;;12.50;96.20;;;;;;5049963;28;20037;-67
2023/05/03 09:41:30;;;;;;;3.33;2.08;;;12.40;95.90;;;;;;5032052;28;20044;-67
2023/05/03 09:44:01;;;;;;;2.60;2.00;;;12.70;96.20;;;;;;5032250;28;20041;-67
2023/05/03 09:46:28;;;;;;;4.15;2.20;;;13.00;95.90;;;;;;5015577;28;20127;-67
2023/05/03 09:48:56;;;;;;;3.47;2.30;;;13.60;94.70;;;;;;5031994;28;20736;-67
2023/05/03 09:51:23;;;;;;;4.53;2.28;;;14.40;94.00;;;;;;5015920;28;20445;-67
2023/05/03 09:53:49;;;;;;;3.92;2.20;;;14.90;94.20;;;;;;5031923;28;20123;-67
2023/05/03 09:56:16;;;;;;;3.67;2.20;;;15.00;92.30;;;;;;5030819;28;20084;-67
2023/05/03 09:58:45;;;;;;;5.00;2.15;;;15.40;94.40;;;;;;5010173;28;20045;-67
2023/05/03 10:01:13;;;;;;;4.20;2.35;;;15.80;92.70;;;;;;5007650;28;20175;-67
2023/05/03 10:03:45;;;;;;;9.23;2.20;;;15.80;91.40;;;;;;5009975;28;20398;-67
2023/05/03 10:06:25;;;;;;;3.55;2.20;;;15.60;91.20;;;;;;5009612;28;20525;-68
2023/05/03 10:08:53;;;;;;;6.07;2.20;;;14.80;90.70;;;;;;5022643;28;20045;-67
2023/05/03 10:11:25;;;;;;;5.85;2.13;;;14.60;91.30;;;;;;5014606;28;20060;-67
2023/05/03 10:13:51;;;;;;;3.17;2.08;;;14.40;91.30;;;;;;5013982;28;20402;-67
2023/05/03 10:16:40;;;;;;;4.55;1.92;;;13.90;91.20;;;;;;5031481;28;20044;-67
2023/05/03 10:19:22;;;;;;;4.78;2.20;;;13.50;91.50;;;;;;5027376;28;20033;-68
2023/05/03 10:21:58;;;;;;;3.45;2.20;;;13.10;91.90;;;;;;5033318;28;20075;-68
2023/05/03 10:24:24;;;;;;;3.08;2.33;;;13.00;92.30;;;;;;5018950;28;20037;-67
2023/05/03 10:26:50;;;;;;;4.20;2.33;;;13.20;91.90;;;;;;5031876;28;20067;-67
2023/05/03 10:29:34;;;;;;;4.32;2.30;;;13.40;92.60;;;;;;5011925;28;20069;-68
2023/05/03 10:32:04;;;;;;;3.30;2.13;;;14.20;92.40;;;;;;5028591;28;20064;-68
2023/05/03 10:34:31;;;;;;;2.83;2.00;;;14.90;92.40;;;;;;5029594;28;20052;-68
2023/05/03 10:37:02;;;;;;;5.85;2.35;;;15.10;91.10;;;;;;5011259;28;20039;-68
2023/05/03 10:39:29;;;;;;;6.72;2.50;;;15.50;91.20;;;;;;4998087;28;20060;-68
2023/05/03 10:42:00;;;;;;;4.97;2.55;;;15.50;89.50;;;;;;5011718;28;20045;-68
2023/05/03 10:44:50;;;;;;;4.32;2.35;;;16.00;90.80;;;;;;5012500;28;20029;-68
2023/05/03 10:47:18;;;;;;;3.45;2.67;;;15.90;90.00;;;;;;5014562;28;20132;-68
2023/05/03 10:49:44;;;;;;;4.68;2.90;;;15.90;90.60;;;;;;5028044;28;20112;-69
2023/05/03 10:52:38;;;;;;;5.18;2.22;;;15.80;88.80;;;;;;5028122;28;20033;-68
2023/05/03 10:55:12;;;;;;;5.60;2.45;;;15.40;87.70;;;;;;5027898;28;20063;-68
2023/05/03 10:57:42;;;;;;;5.65;2.58;;;15.00;89.70;;;;;;5009033;28;20038;-68
2023/05/03 11:00:21;;;;;;;4.85;2.40;;;14.80;89.20;;;;;;5027690;28;20036;-69
2023/05/03 11:03:09;;;;;;;4.30;2.28;;;14.40;90.40;;;;;;5009901;28;20064;-69
2023/05/03 11:05:36;;;;;;;6.72;2.88;;;14.10;90.10;;;;;;4998494;28;20502;-69
2023/05/03 11:08:16;;;;;;;5.03;2.70;;;14.20;91.20;;;;;;5016620;28;20047;-68
2023/05/03 11:10:46;;;;;;;2.90;2.60;;;14.40;88.80;;;;;;5015990;28;20064;-67
2023/05/03 11:13:12;;;;;;;3.42;2.53;;;14.70;90.70;;;;;;5007331;28;20477;-67
2023/05/03 11:15:39;;;;;;;5.15;2.80;;;15.00;90.70;;;;;;5017376;28;20116;-67
2023/05/03 11:18:10;;;;;;;4.47;2.20;;;15.10;90.20;;;;;;5002337;28;20087;-66
2023/05/03 11:20:37;;;;;;;6.23;2.60;;;15.40;90.30;;;;;;5020972;28;20029;-67
2023/05/03 11:23:04;;;;;;;7.68;3.38;;;15.40;90.80;;;;;;5019261;28;20203;-67
2023/05/03 11:25:31;;;;;;;4.95;2.40;;;15.40;90.20;;;;;;4999784;28;20041;-68
2023/05/03 11:27:57;;;;;;;5.20;2.65;;;15.30;89.10;;;;;;5011499;28;20160;-67
2023/05/03 11:30:22;;;;;;;6.43;3.03;;;15.30;89.00;;;;;;5000154;28;20135;-68
2023/05/03 11:32:48;;;;;;;3.95;2.70;;;15.40;89.80;;;;;;4998994;28;20048;-67
2023/05/03 11:35:16;;;;;;;4.90;2.60;;;15.50;89.00;;;;;;5020263;28;20647;-69
2023/05/03 11:37:43;;;;;;;4.80;2.72;;;15.50;87.50;;;;;;5002566;28;20053;-68
2023/05/03 11:40:16;;;;;;;3.17;2.45;;;15.50;87.90;;;;;;4996517;28;20048;-68
2023/05/03 11:42:58;;;;;;;4.60;2.80;;;15.50;87.70;;;;;;4999131;28;20155;-68
2023/05/03 11:45:31;;;;;;;9.75;3.00;;;15.40;89.00;;;;;;4999791;28;20048;-68
2023/05/03 11:47:58;;;;;;;6.40;2.60;;;15.50;85.60;;;;;;5002963;28;20106;-69
2023/05/03 11:50:44;;;;;;;5.07;2.80;;;15.80;87.50;;;;;;4998868;28;20083;-67
2023/05/03 11:53:12;;;;;;;34.35;9.95;;;15.70;86.10;;;;;;4994085;28;20147;-67
2023/05/03 11:55:45;;;;;;;9.00;3.53;;;16.00;87.80;;;;;;4984535;28;20048;-67
2023/05/03 11:58:25;;;;;;;5.93;3.17;;;16.20;89.30;;;;;;5015907;28;20033;-67
2023/05/03 12:00:55;;;;;;;10.20;3.15;;;16.20;87.20;;;;;;4993504;28;20051;-67
2023/05/03 12:03:30;;;;;;;5.95;2.80;;;16.20;88.30;;;;;;4997245;28;20506;-69
2023/05/03 12:05:56;;;;;;;5.25;3.13;;;16.30;89.80;;;;;;5019389;28;20106;-68
2023/05/03 12:08:28;;;;;;;5.70;3.28;;;16.20;87.50;;;;;;4982550;28;20139;-69
2023/05/03 12:10:54;;;;;;;4.45;2.92;;;16.20;86.60;;;;;;5019538;28;20425;-68
2023/05/03 12:13:35;;;;;;;4.35;2.95;;;16.30;86.10;;;;;;5020208;28;20402;-68
2023/05/03 12:16:05;;;;;;;4.70;2.70;;;16.40;87.80;;;;;;5015949;28;20037;-68
2023/05/03 12:18:52;;;;;;;4.75;2.80;;;16.00;85.10;;;;;;5017244;28;20039;-67
2023/05/03 12:21:19;;;;;;;4.35;3.13;;;16.30;86.50;;;;;;5013155;28;20072;-66
2023/05/03 12:23:45;;;;;;;4.07;2.92;;;16.30;83.90;;;;;;4981907;28;20037;-68
2023/05/03 12:26:11;;;;;;;8.50;3.17;;;16.10;84.70;;;;;;5017202;28;20091;-66
2023/05/03 12:28:37;;;;;;;3.13;2.83;;;16.30;86.40;;;;;;5029437;28;20167;-67
2023/05/03 12:31:03;;;;;;;4.38;2.70;;;16.40;84.90;;;;;;5014176;28;20045;-68
2023/05/03 12:33:29;;;;;;;5.15;2.67;;;16.30;82.70;;;;;;5014391;28;20039;-67
2023/05/03 12:35:55;;;;;;;4.53;2.72;;;16.60;84.00;;;;;;4997647;28;20048;-67
2023/05/03 12:38:22;;;;;;;6.05;2.72;;;16.80;85.00;;;;;;4997738;28;20470;-68
2023/05/03 12:40:47;;;;;;;3.92;3.00;;;16.70;85.10;;;;;;4998462;28;20049;-67
2023/05/03 12:43:13;;;;;;;7.25;3.67;;;16.80;83.40;;;;;;5022845;28;20330;-66
2023/05/03 12:45:39;;;;;;;5.30;3.17;;;16.70;86.70;;;;;;5025669;28;20083;-67
2023/05/03 12:48:05;;;;;;;4.53;3.17;;;16.80;84.20;;;;;;5025304;28;20252;-68
2023/05/03 12:50:31;;;;;;;4.45;2.70;;;16.80;84.20;;;;;;5020864;28;20044;-67
2023/05/03 12:52:57;;;;;;;5.55;2.88;;;16.80;84.00;;;;;;4997223;28;20079;-66
2023/05/03 12:55:22;;;;;;;4.15;3.05;;;16.60;83.50;;;;;;4996428;28;20087;-66